Time;durP1;ratioP1;P1;durP2;ratioP2;P2;SDS_P1;SDS_P2;PMS_P1;PMS_P2;Temp;Humidity;BMP_temperature;BMP_pressure;BME280_temperature;BME280_humidity;BME280_pressure;Samples;Min_cycle;Max_cycle;Signal;HPM_P1;HPM_P2
2022/05/26 00:00:59;;;;;;;8.00;4.07;;;;;;;14.12;78.41;101624.91;5111387;28;20032;-74
2022/05/26 00:03:24;;;;;;;6.95;4.50;;;;;;;14.12;78.21;101636.72;5110113;28;20050;-71
2022/05/26 00:05:50;;;;;;;5.00;4.25;;;;;;;14.12;78.33;101628.53;5110712;28;20040;-67
2022/05/26 00:08:15;;;;;;;5.97;4.50;;;;;;;14.12;78.54;101630.38;5110686;28;20039;-72
2022/05/26 00:10:40;;;;;;;9.38;4.45;;;;;;;14.13;77.63;101627.56;5099290;28;20066;-66
2022/05/26 00:13:06;;;;;;;9.13;4.80;;;;;;;14.13;77.80;101629.38;5108531;28;20047;-67
2022/05/26 00:15:32;;;;;;;4.93;4.18;;;;;;;14.14;77.53;101633.91;5111191;28;20039;-66
2022/05/26 00:17:58;;;;;;;6.32;4.15;;;;;;;14.14;78.15;101636.63;5110815;28;20023;-71
2022/05/26 00:20:23;;;;;;;8.63;4.40;;;;;;;14.14;78.29;101631.16;5111250;28;20043;-71
2022/05/26 00:22:49;;;;;;;5.65;3.67;;;;;;;14.14;78.01;101633.91;5109042;28;20024;-71
2022/05/26 00:25:14;;;;;;;7.40;4.35;;;;;;;14.14;78.50;101644.84;5107206;28;20039;-66
2022/05/26 00:27:39;;;;;;;5.18;3.88;;;;;;;14.14;78.14;101651.19;5108378;28;20402;-65
2022/05/26 00:30:06;;;;;;;5.72;4.00;;;;;;;14.14;77.61;101647.59;5109593;28;20035;-72
2022/05/26 00:32:32;;;;;;;7.63;4.18;;;;;;;14.14;79.08;101650.31;5106789;28;20028;-66
2022/05/26 00:34:57;;;;;;;5.95;3.78;;;;;;;14.15;78.16;101652.94;5097642;28;20051;-66
2022/05/26 00:37:22;;;;;;;6.78;4.22;;;;;;;14.14;78.32;101653.06;5093052;28;20032;-66
2022/05/26 00:39:48;;;;;;;7.97;4.05;;;;;;;14.12;78.71;101644.94;5104439;28;20022;-65
2022/05/26 00:42:13;;;;;;;7.75;3.70;;;;;;;14.11;78.40;101656.00;5101325;28;20040;-65
2022/05/26 00:44:39;;;;;;;8.55;4.45;;;;;;;14.10;78.37;101651.53;5100536;28;20501;-65
2022/05/26 00:47:15;;;;;;;6.35;3.92;;;;;;;14.09;78.13;101645.19;5110285;28;20040;-70
2022/05/26 00:50:28;;;;;;;6.97;4.70;;;;;;;14.10;78.16;101649.66;5109333;28;20514;-66
2022/05/26 00:53:02;;;;;;;7.68;4.43;;;;;;;14.08;78.90;101651.63;5065659;28;20044;-71
2022/05/26 00:55:29;;;;;;;8.68;4.82;;;;;;;14.07;79.67;101651.75;5106654;28;20033;-66
2022/05/26 00:58:01;;;;;;;9.48;4.65;;;;;;;14.06;79.06;101647.28;5107716;28;20051;-69
2022/05/26 01:00:30;;;;;;;7.25;4.13;;;;;;;14.05;78.55;101649.13;5108329;28;20475;-66
2022/05/26 01:03:11;;;;;;;12.30;5.30;;;;;;;14.06;78.75;101650.00;5098404;28;20682;-73
2022/05/26 01:05:43;;;;;;;11.85;4.97;;;;;;;14.06;79.16;101647.28;5100014;28;20575;-66
2022/05/26 01:08:16;;;;;;;6.68;4.25;;;;;;;14.06;79.09;101653.63;5101208;28;20550;-72
2022/05/26 01:10:41;;;;;;;13.25;4.68;;;;;;;14.04;79.48;101653.75;5101713;28;20093;-74
2022/05/26 01:13:07;;;;;;;9.00;4.82;;;;;;;14.04;79.43;101656.47;5108032;28;20036;-73
2022/05/26 01:15:36;;;;;;;12.90;4.57;;;;;;;14.04;79.18;101653.75;5109824;28;20094;-65
2022/05/26 01:18:31;;;;;;;7.80;4.70;;;;;;;14.06;78.74;101659.09;5108760;28;20027;-71
2022/05/26 01:21:08;;;;;;;9.25;5.22;;;;;;;14.06;79.16;101656.34;5103191;28;20055;-70
2022/05/26 01:23:53;;;;;;;13.00;5.90;;;;;;;14.07;79.50;101652.63;5109599;28;20035;-69
2022/05/26 01:26:51;;;;;;;9.75;5.72;;;;;;;14.07;79.23;101651.75;5105963;28;20406;-71
2022/05/26 01:29:43;;;;;;;10.40;6.28;;;;;;;14.09;78.68;101663.47;5067620;28;20509;-65
2022/05/26 01:32:44;;;;;;;12.63;6.40;;;;;;;14.08;78.86;101658.97;5095648;28;20042;-67
2022/05/26 01:35:23;;;;;;;11.10;5.72;;;;;;;14.08;79.53;101661.69;5094717;28;20072;-70
2022/05/26 01:38:19;;;;;;;12.85;6.28;;;;;;;14.07;79.54;101666.31;5108933;28;20502;-71
2022/05/26 01:40:58;;;;;;;10.82;7.13;;;;;;;14.07;79.63;101666.31;5105658;28;20039;-70
2022/05/26 01:43:50;;;;;;;10.68;6.15;;;;;;;14.09;79.44;101664.34;5102718;28;20080;-65
2022/05/26 01:46:28;;;;;;;15.37;6.20;;;;;;;14.10;79.42;101665.22;5109201;28;20096;-73
2022/05/26 01:49:02;;;;;;;10.50;6.40;;;;;;;14.09;79.29;101672.56;5109291;28;20047;-66
2022/05/26 01:51:27;;;;;;;15.85;6.72;;;;;;;14.09;79.96;101668.94;5107561;28;20035;-73
2022/05/26 01:54:05;;;;;;;11.90;6.68;;;;;;;14.10;79.51;101678.91;5108845;28;20716;-73
2022/05/26 01:56:44;;;;;;;16.55;7.55;;;;;;;14.09;79.30;101685.38;5101078;28;20035;-71
2022/05/26 01:59:13;;;;;;;16.63;7.95;;;;;;;14.09;80.13;101683.50;5104067;28;20542;-72
2022/05/26 02:01:55;;;;;;;17.50;7.75;;;;;;;14.09;79.35;101682.63;5108867;28;20044;-74
2022/05/26 02:04:33;;;;;;;14.32;7.38;;;;;;;14.09;79.40;101688.97;5098766;28;20042;-66
2022/05/26 02:07:05;;;;;;;13.18;7.68;;;;;;;14.09;80.34;101680.75;5107106;28;20086;-74
2022/05/26 02:09:41;;;;;;;16.38;7.25;;;;;;;14.10;79.67;101687.97;5108359;28;20039;-67
2022/05/26 02:12:14;;;;;;;18.80;8.18;;;;;;;14.10;79.32;101698.94;5105599;27;20076;-65
2022/05/26 02:14:45;;;;;;;18.17;7.95;;;;;;;14.11;79.30;101697.06;5107838;28;20039;-73
2022/05/26 02:17:14;;;;;;;14.23;8.05;;;;;;;14.10;79.95;101695.31;5108534;28;20039;-70
2022/05/26 02:19:48;;;;;;;16.15;8.48;;;;;;;14.07;80.04;101695.53;5107650;28;20039;-70
2022/05/26 02:22:20;;;;;;;19.70;8.32;;;;;;;14.04;80.72;101697.53;5106946;28;20197;-72
2022/05/26 02:24:53;;;;;;;16.13;8.57;;;;;;;14.05;80.34;101709.34;5107752;28;20051;-66
2022/05/26 02:27:19;;;;;;;13.90;8.70;;;;;;;14.02;80.34;101701.34;5104698;28;20387;-66
2022/05/26 02:29:51;;;;;;;14.18;8.35;;;;;;;14.02;80.53;101702.22;5107566;28;20035;-65
2022/05/26 02:32:29;;;;;;;19.92;8.10;;;;;;;14.02;79.83;101710.41;5106821;28;20019;-66
2022/05/26 02:34:59;;;;;;;15.30;7.68;;;;;;;13.99;80.73;101704.31;5108339;28;20069;-69
2022/05/26 02:37:26;;;;;;;16.90;7.47;;;;;;;13.98;80.00;101711.63;5103284;28;20539;-70
2022/05/26 02:39:51;;;;;;;17.17;8.20;;;;;;;13.98;80.30;101714.38;5102398;28;20035;-71
2022/05/26 02:42:18;;;;;;;14.88;8.23;;;;;;;13.96;80.05;101702.66;5103275;28;20031;-67
2022/05/26 02:44:45;;;;;;;18.90;8.23;;;;;;;13.93;80.50;101708.34;5107945;28;20474;-65
2022/05/26 02:47:37;;;;;;;18.30;8.88;;;;;;;13.91;80.81;101706.72;5106315;28;20526;-73
2022/05/26 02:50:27;;;;;;;18.15;8.65;;;;;;;13.91;80.10;101723.16;5119514;28;20113;-65
2022/05/26 02:53:06;;;;;;;19.85;8.25;;;;;;;13.90;80.92;101718.66;5108613;28;20027;-71
2022/05/26 02:55:58;;;;;;;16.73;8.30;;;;;;;13.87;80.90;101722.50;5106054;28;20054;-66
2022/05/26 02:59:11;;;;;;;17.75;7.95;;;;;;;13.91;80.06;101717.69;5103806;28;20028;-65
2022/05/26 03:01:50;;;;;;;14.75;8.35;;;;;;;13.89;80.55;101723.22;5042936;28;20037;-66
2022/05/26 03:04:27;;;;;;;13.52;7.50;;;;;;;13.88;79.98;101724.22;5033233;28;20226;-65
2022/05/26 03:06:58;;;;;;;16.55;8.50;;;;;;;13.89;81.01;101727.84;5095299;28;20047;-70
2022/05/26 03:09:25;;;;;;;17.08;9.27;;;;;;;13.84;80.93;101722.69;5089936;28;20043;-65
2022/05/26 03:11:55;;;;;;;20.38;8.60;;;;;;;13.85;81.36;101724.47;5101998;28;20040;-69
2022/05/26 03:14:21;;;;;;;24.58;9.02;;;;;;;13.83;80.94;101726.41;5087109;28;20035;-65
2022/05/26 03:16:47;;;;;;;18.70;9.02;;;;;;;13.81;80.43;101728.41;5088248;28;20506;-66
2022/05/26 03:19:14;;;;;;;23.50;9.55;;;;;;;13.80;81.19;101732.09;5107984;28;20035;-67
2022/05/26 03:21:40;;;;;;;24.38;10.00;;;;;;;13.78;81.14;101729.50;5089452;28;20043;-70
2022/05/26 03:24:06;;;;;;;18.20;8.85;;;;;;;13.75;81.40;101726.97;5105802;28;20043;-70
2022/05/26 03:26:32;;;;;;;19.08;9.25;;;;;;;13.71;81.28;101728.19;5104450;28;20040;-66
2022/05/26 03:28:58;;;;;;;25.33;9.00;;;;;;;13.71;81.58;101733.66;5106507;28;20072;-71
2022/05/26 03:31:23;;;;;;;23.33;9.15;;;;;;;13.69;81.68;101738.34;5108011;28;20043;-66
2022/05/26 03:42:02;;;;;;;26.08;8.68;;;;;;;13.66;81.70;101751.38;5106393;28;20035;-66
2022/05/26 03:44:32;;;;;;;24.05;8.48;;;;;;;13.65;81.78;101752.34;5109735;28;20036;-65
2022/05/26 03:46:58;;;;;;;28.05;9.52;;;;;;;13.63;81.51;101757.06;5111665;28;20027;-66
2022/05/26 03:49:24;;;;;;;22.45;7.40;;;;;;;13.64;80.81;101753.34;5109856;28;20096;-70
2022/05/26 03:51:49;;;;;;;23.25;7.57;;;;;;;13.64;81.13;101750.59;5110142;28;20031;-72
2022/05/26 03:54:15;;;;;;;18.20;8.27;;;;;;;13.62;81.54;101758.06;5109248;28;20027;-66
2022/05/26 03:56:40;;;;;;;25.40;8.10;;;;;;;13.61;81.56;101762.63;5107042;28;20039;-65
2022/05/26 03:59:05;;;;;;;26.65;8.07;;;;;;;13.59;81.57;101769.19;5110661;28;20119;-65
2022/05/26 04:01:31;;;;;;;22.73;7.28;;;;;;;13.53;81.81;101763.19;5098915;28;20085;-65
2022/05/26 04:03:56;;;;;;;22.02;6.60;;;;;;;13.50;81.78;101766.13;5106813;28;20100;-66
2022/05/26 04:06:23;;;;;;;28.08;7.60;;;;;;;13.48;81.81;101767.22;5109146;28;20074;-65
2022/05/26 04:08:48;;;;;;;17.80;7.10;;;;;;;13.49;81.33;101769.84;5111111;28;20031;-65
2022/05/26 04:11:14;;;;;;;19.20;7.40;;;;;;;13.51;82.28;101777.94;5107723;28;20036;-65
2022/05/26 04:13:39;;;;;;;27.20;7.85;;;;;;;13.49;82.23;101780.78;5107603;28;20036;-66
2022/05/26 04:16:05;;;;;;;22.60;7.05;;;;;;;13.48;81.96;101773.56;5110722;28;20035;-66
2022/05/26 04:18:31;;;;;;;21.33;7.22;;;;;;;13.50;82.09;101777.06;5109691;28;20505;-69
2022/05/26 04:21:04;;;;;;;19.98;6.03;;;;;;;13.54;81.41;101785.94;5111261;28;20084;-66
2022/05/26 04:23:30;;;;;;;25.90;7.40;;;;;;;13.58;81.92;101789.34;5109684;28;20035;-73
2022/05/26 04:25:55;;;;;;;23.50;6.93;;;;;;;13.59;82.06;101778.28;5106574;28;20718;-70
2022/05/26 04:28:20;;;;;;;23.23;7.63;;;;;;;13.60;81.78;101793.69;5108463;28;20490;-65
2022/05/26 04:30:46;;;;;;;23.92;7.57;;;;;;;13.63;81.75;101787.16;5110934;28;20475;-66
2022/05/26 04:33:11;;;;;;;24.88;8.82;;;;;;;13.64;81.81;101802.56;5098951;28;20043;-68
2022/05/26 04:35:36;;;;;;;23.33;7.13;;;;;;;13.65;81.59;101785.16;5108037;28;20129;-65
2022/05/26 04:38:02;;;;;;;20.98;6.38;;;;;;;13.69;81.80;101787.56;5109967;28;20043;-70
2022/05/26 04:40:27;;;;;;;20.60;7.00;;;;;;;13.71;81.63;101795.69;5107360;28;20035;-70
2022/05/26 04:42:53;;;;;;;22.75;6.60;;;;;;;13.75;80.77;101797.19;5106086;28;20031;-65
2022/05/26 04:45:19;;;;;;;16.55;5.85;;;;;;;13.77;81.07;101798.00;5109962;28;20119;-70
2022/05/26 04:47:44;;;;;;;24.77;6.88;;;;;;;13.80;81.69;101795.00;5110189;28;20118;-66
2022/05/26 04:50:10;;;;;;;19.90;6.40;;;;;;;13.85;81.02;101812.00;5108791;28;20126;-65
2022/05/26 04:52:36;;;;;;;20.83;7.40;;;;;;;13.88;80.71;101810.91;5109006;28;20039;-72
2022/05/26 04:55:02;;;;;;;20.75;7.57;;;;;;;13.94;81.27;101807.72;5109932;28;20058;-69
2022/05/26 04:57:27;;;;;;;19.90;6.57;;;;;;;14.01;81.10;101818.13;5106266;28;20395;-71
2022/05/26 04:59:53;;;;;;;21.05;6.57;;;;;;;14.03;81.68;101818.00;5109715;28;20875;-73
2022/05/26 05:02:21;;;;;;;22.13;5.85;;;;;;;14.09;80.10;101824.91;5109629;28;20019;-65
2022/05/26 05:04:48;;;;;;;22.17;7.05;;;;;;;14.13;80.54;101832.81;5109699;28;20045;-65
2022/05/26 05:07:15;;;;;;;23.55;6.60;;;;;;;14.17;79.81;101833.44;5108297;28;20046;-73
2022/05/26 05:09:41;;;;;;;21.35;7.18;;;;;;;14.23;79.46;101830.28;5108849;28;20040;-70
2022/05/26 05:12:11;;;;;;;17.60;6.47;;;;;;;14.26;80.05;101839.13;5105610;28;20032;-70
2022/05/26 05:14:42;;;;;;;19.83;7.03;;;;;;;14.27;79.34;101835.41;5109106;28;20470;-65
2022/05/26 05:17:08;;;;;;;20.80;6.78;;;;;;;14.30;80.58;101843.38;5108519;28;20035;-66
2022/05/26 05:19:33;;;;;;;25.48;7.18;;;;;;;14.37;79.68;101841.09;5108965;28;20082;-70
2022/05/26 05:22:04;;;;;;;22.20;6.20;;;;;;;14.37;79.66;101849.31;5108676;28;20031;-65
2022/05/26 05:24:45;;;;;;;21.05;6.82;;;;;;;14.40;79.96;101843.59;5094521;28;20046;-72
2022/05/26 05:27:17;;;;;;;19.27;6.55;;;;;;;14.44;79.45;101845.13;5105837;28;20032;-68
2022/05/26 05:29:44;;;;;;;18.92;6.32;;;;;;;14.47;79.03;101855.00;5095148;28;20118;-72
2022/05/26 05:32:24;;;;;;;20.70;6.72;;;;;;;14.58;79.45;101859.72;5107113;28;20044;-71
2022/05/26 05:35:04;;;;;;;27.08;7.28;;;;;;;14.64;79.46;101856.50;5096511;28;20035;-70
2022/05/26 05:37:32;;;;;;;21.35;6.90;;;;;;;14.73;78.83;101864.06;5109804;28;20032;-65
2022/05/26 05:39:58;;;;;;;22.58;6.90;;;;;;;14.78;78.59;101867.31;5105404;27;20035;-65
2022/05/26 05:42:24;;;;;;;15.10;6.50;;;;;;;14.78;78.72;101867.31;5096885;28;20066;-66
2022/05/26 05:44:49;;;;;;;25.13;6.50;;;;;;;14.81;78.57;101861.63;5093334;28;20077;-66
2022/05/26 05:47:15;;;;;;;24.80;6.95;;;;;;;14.88;78.21;101868.44;5095687;28;20031;-66
2022/05/26 05:49:40;;;;;;;18.17;6.30;;;;;;;15.03;78.15;101863.66;5088168;28;20090;-72
2022/05/26 05:52:11;;;;;;;24.50;5.97;;;;;;;15.17;77.51;101876.31;5100863;28;20085;-65
2022/05/26 05:54:38;;;;;;;14.57;6.53;;;;;;;15.20;76.99;101876.97;5089311;28;20035;-68
2022/05/26 05:57:03;;;;;;;23.45;7.00;;;;;;;15.23;77.95;101868.50;5090427;28;20038;-68
2022/05/26 05:59:29;;;;;;;23.23;6.80;;;;;;;15.30;77.57;101878.03;5101566;28;20015;-71
2022/05/26 06:01:54;;;;;;;20.13;6.38;;;;;;;15.37;76.77;101880.28;5107172;28;20043;-74
2022/05/26 06:04:20;;;;;;;15.18;5.95;;;;;;;15.41;76.54;101879.06;5105837;28;20067;-72
2022/05/26 06:06:45;;;;;;;16.10;6.00;;;;;;;15.46;76.75;101894.19;5105978;28;20092;-65
2022/05/26 06:09:20;;;;;;;16.73;6.45;;;;;;;15.65;76.50;101887.31;5104176;28;20027;-67
2022/05/26 06:11:46;;;;;;;22.48;6.45;;;;;;;15.70;75.92;101885.97;5101475;28;20388;-65
2022/05/26 06:14:12;;;;;;;17.48;5.90;;;;;;;15.71;75.58;101893.19;5105829;28;20023;-66
2022/05/26 06:16:38;;;;;;;17.63;5.80;;;;;;;15.67;75.54;101893.56;5104519;28;20035;-66
2022/05/26 06:19:04;;;;;;;24.23;7.05;;;;;;;15.68;75.38;101895.31;5106539;28;20494;-65
2022/05/26 06:21:29;;;;;;;24.58;7.03;;;;;;;15.69;75.80;101897.94;5095700;28;20059;-65
2022/05/26 06:23:56;;;;;;;17.45;6.72;;;;;;;15.70;75.11;101898.81;5101645;28;20036;-65
2022/05/26 06:26:27;;;;;;;23.60;7.38;;;;;;;15.67;75.76;101896.31;5094289;28;20027;-72
2022/05/26 06:31:37;;;;;;;18.75;7.35;;;;;;;15.78;75.06;101908.19;5108558;28;20497;-69
2022/05/26 06:39:12;;;;;;;24.60;7.78;;;;;;;16.13;74.84;101914.66;5091908;28;20069;-66
2022/05/26 06:44:21;;;;;;;18.80;8.98;;;;;;;16.18;74.87;101923.41;5098577;28;20402;-72
2022/05/26 06:46:47;;;;;;;22.05;9.07;;;;;;;16.26;73.85;101920.94;5106718;28;20032;-65
2022/05/26 06:49:12;;;;;;;23.08;8.52;;;;;;;16.32;73.74;101924.09;5108499;28;20051;-66
2022/05/26 06:51:39;;;;;;;21.63;7.65;;;;;;;16.36;72.95;101927.44;5104322;28;20031;-70
2022/05/26 06:54:05;;;;;;;17.23;8.40;;;;;;;16.29;72.11;101916.09;5106377;28;20043;-69
2022/05/26 06:56:30;;;;;;;17.63;8.48;;;;;;;16.34;72.00;101940.44;5104843;28;20448;-70
2022/05/26 06:58:56;;;;;;;18.13;8.20;;;;;;;16.40;72.37;101936.31;5093163;28;20032;-72
2022/05/26 07:01:21;;;;;;;14.50;8.18;;;;;;;16.35;71.77;101942.16;5107516;28;20092;-66
2022/05/26 07:03:46;;;;;;;15.07;7.90;;;;;;;16.32;72.34;101942.44;5106594;28;20034;-65
2022/05/26 07:06:14;;;;;;;18.45;7.57;;;;;;;16.44;71.40;101935.06;5108312;28;20038;-72
2022/05/26 07:08:39;;;;;;;15.75;8.15;;;;;;;16.57;70.52;101939.47;5106996;28;20133;-70
2022/05/26 07:11:04;;;;;;;21.73;8.63;;;;;;;16.72;70.96;101933.75;5102785;28;20061;-67
2022/05/26 07:13:30;;;;;;;14.77;7.68;;;;;;;16.89;71.70;101941.53;5106707;28;20066;-66
2022/05/26 07:15:55;;;;;;;16.08;8.55;;;;;;;16.98;69.33;101943.53;5110101;28;20034;-70
2022/05/26 07:18:20;;;;;;;15.95;8.68;;;;;;;16.90;69.51;101948.75;5110669;28;20023;-72
2022/05/26 07:20:46;;;;;;;19.05;7.60;;;;;;;16.92;70.08;101956.88;5110894;28;20043;-65
2022/05/26 07:23:11;;;;;;;15.77;7.80;;;;;;;17.06;70.72;101956.63;5110864;28;20069;-65
2022/05/26 07:25:41;;;;;;;17.73;7.78;;;;;;;17.00;68.72;101960.75;5108334;28;20040;-65
2022/05/26 07:28:07;;;;;;;15.65;7.07;;;;;;;17.02;69.18;101957.88;5108586;28;20118;-70
2022/05/26 07:30:32;;;;;;;17.70;8.10;;;;;;;17.09;69.90;101965.50;5112832;28;20200;-72
2022/05/26 07:32:57;;;;;;;21.63;7.90;;;;;;;17.21;70.46;101960.00;5107920;28;20080;-71
2022/05/26 07:35:23;;;;;;;18.90;7.40;;;;;;;17.37;68.15;101970.59;5110660;28;20067;-66
2022/05/26 07:43:18;;;;;;;14.93;7.13;;;;;;;17.62;67.85;101973.03;5104406;28;20042;-66
2022/05/26 07:45:44;;;;;;;17.50;8.05;;;;;;;17.55;66.46;101986.44;5110397;28;20023;-66
2022/05/26 07:48:09;;;;;;;15.40;7.80;;;;;;;17.52;67.88;101985.81;5111802;28;20044;-65
2022/05/26 07:50:35;;;;;;;19.70;7.38;;;;;;;17.57;68.17;101972.53;5111419;28;20135;-69
2022/05/26 07:53:00;;;;;;;13.85;7.63;;;;;;;17.68;67.44;101975.28;5104779;28;20027;-69
2022/05/26 07:55:25;;;;;;;14.10;7.68;;;;;;;17.80;66.64;101981.63;5102064;28;20039;-71
2022/05/26 07:57:53;;;;;;;14.63;7.85;;;;;;;17.82;65.99;101979.66;5107935;28;20544;-70
2022/05/26 08:00:19;;;;;;;17.23;7.43;;;;;;;17.74;65.60;101977.53;5109721;28;20043;-64
2022/05/26 08:02:45;;;;;;;18.80;7.25;;;;;;;17.77;66.75;101979.16;5101246;28;20035;-65
2022/05/26 08:05:12;;;;;;;13.57;7.95;;;;;;;17.75;66.72;101984.78;5098102;27;20035;-65
2022/05/26 08:07:37;;;;;;;18.00;7.32;;;;;;;17.63;67.43;101984.94;5094212;28;20042;-72
2022/05/26 08:10:03;;;;;;;14.15;6.75;;;;;;;17.71;67.48;101985.13;5099621;27;20023;-68
2022/05/26 08:12:29;;;;;;;13.13;7.10;;;;;;;17.90;67.24;101987.22;5105614;27;20071;-66
2022/05/26 08:14:54;;;;;;;14.30;7.60;;;;;;;18.09;67.23;101988.31;5106880;27;20074;-70
2022/05/26 08:17:22;;;;;;;16.75;7.18;;;;;;;18.23;65.76;101988.97;5103212;28;20059;-65
2022/05/26 08:19:48;;;;;;;12.07;7.22;;;;;;;18.37;66.28;101994.16;5102657;28;20042;-71
2022/05/26 08:22:14;;;;;;;12.55;6.95;;;;;;;18.48;65.08;101984.97;5105876;28;20483;-64
2022/05/26 08:24:39;;;;;;;12.90;6.90;;;;;;;18.68;63.99;101994.22;5100649;28;20034;-65
2022/05/26 08:27:05;;;;;;;18.52;7.35;;;;;;;18.83;65.07;101991.00;5097648;28;20122;-67
2022/05/26 08:29:31;;;;;;;16.58;6.65;;;;;;;19.18;65.62;101995.25;5110753;28;20043;-64
2022/05/26 08:31:56;;;;;;;12.65;6.82;;;;;;;19.39;62.25;101995.16;5108473;28;20031;-64
2022/05/26 08:34:22;;;;;;;13.23;6.55;;;;;;;19.19;61.35;101999.75;5106583;28;20526;-74
2022/05/26 08:36:48;;;;;;;13.48;6.95;;;;;;;19.08;62.33;102000.72;5099810;28;20092;-72
2022/05/26 08:39:14;;;;;;;10.77;6.43;;;;;;;19.34;61.64;102003.00;5109627;27;20106;-70
2022/05/26 08:41:42;;;;;;;15.82;6.53;;;;;;;19.72;59.83;102013.28;5103731;28;20196;-66
2022/05/26 08:44:24;;;;;;;14.52;6.60;;;;;;;20.21;60.87;102008.69;5100566;28;20043;-72
2022/05/26 08:47:01;;;;;;;11.93;6.32;;;;;;;20.45;59.91;102004.63;5098019;28;20045;-65
2022/05/26 08:49:38;;;;;;;15.25;5.95;;;;;;;21.05;60.15;102013.53;5092115;28;20052;-68
2022/05/26 08:52:10;;;;;;;10.45;5.75;;;;;;;21.32;57.43;102009.97;5108006;28;20044;-72
2022/05/26 08:54:58;;;;;;;11.60;5.18;;;;;;;21.36;58.81;102022.47;5108640;28;20932;-70
2022/05/26 08:57:28;;;;;;;9.75;5.22;;;;;;;21.54;56.73;102016.97;5106517;28;20367;-64
2022/05/26 08:59:53;;;;;;;10.63;5.20;;;;;;;21.90;55.46;102009.59;5107583;28;20504;-65
2022/05/26 09:02:37;;;;;;;12.68;5.38;;;;;;;22.19;55.84;102014.09;5092972;28;20036;-71
2022/05/26 09:05:13;;;;;;;9.57;4.50;;;;;;;22.55;54.07;102017.72;5094553;28;20047;-65
2022/05/26 09:13:27;;;;;;;6.95;5.47;;;;;;;22.46;53.38;102015.91;5101964;28;20036;-65
2022/05/26 09:15:52;;;;;;;11.73;5.30;;;;;;;22.40;52.42;102014.66;5109419;27;20026;-66
2022/05/26 09:18:20;;;;;;;13.43;5.30;;;;;;;22.44;53.64;102012.44;5107805;28;20475;-65
2022/05/26 09:20:49;;;;;;;10.80;4.70;;;;;;;22.77;51.14;102017.19;5092068;28;20042;-64
2022/05/26 09:23:24;;;;;;;8.98;4.25;;;;;;;22.76;51.49;102015.47;5088313;28;20039;-72
2022/05/26 09:25:53;;;;;;;10.30;4.40;;;;;;;22.57;50.99;102015.63;5098336;28;20475;-69
2022/05/26 09:28:28;;;;;;;9.35;4.55;;;;;;;22.55;50.82;102023.25;5104803;28;20035;-64
2022/05/26 09:30:53;;;;;;;9.15;4.60;;;;;;;22.53;51.26;102026.19;5090189;28;20522;-73
2022/05/26 09:33:28;;;;;;;11.82;4.45;;;;;;;22.70;52.29;102038.28;5089069;28;20036;-72
2022/05/26 09:35:53;;;;;;;11.63;5.95;;;;;;;22.70;50.10;102034.63;5090160;28;20115;-70
2022/05/26 09:38:19;;;;;;;12.07;6.15;;;;;;;22.40;49.12;102043.25;5099196;28;20114;-68
2022/05/26 09:40:48;;;;;;;11.52;4.78;;;;;;;22.17;50.76;102046.66;5104762;28;20031;-65
2022/05/26 09:43:16;;;;;;;11.05;5.85;;;;;;;22.57;52.33;102047.03;5101764;28;20044;-66
2022/05/26 09:45:46;;;;;;;9.57;5.70;;;;;;;22.65;50.54;102040.66;5089651;28;20087;-64
2022/05/26 09:48:19;;;;;;;10.65;8.43;;;;;;;22.29;50.62;102045.38;5089613;28;20048;-65
2022/05/26 09:50:50;;;;;;;13.02;9.40;;;;;;;22.07;52.30;102055.00;5095037;28;20039;-64
2022/05/26 09:53:56;;;;;;;17.97;9.63;;;;;;;21.61;52.02;102056.91;5087880;28;20032;-64
2022/05/26 09:56:43;;;;;;;12.45;9.48;;;;;;;21.62;53.10;102051.19;5084875;28;20043;-71
2022/05/26 09:59:27;;;;;;;11.02;9.20;;;;;;;22.05;54.79;102049.59;5087989;28;20090;-70
2022/05/26 10:02:03;;;;;;;13.52;8.35;;;;;;;22.31;52.17;102054.41;5097301;28;20031;-64
2022/05/26 10:05:20;;;;;;;16.58;6.63;;;;;;;22.19;51.22;102050.13;5108695;28;20039;-69
2022/05/26 10:08:16;;;;;;;10.05;6.13;;;;;;;21.94;52.44;102054.50;5081981;28;20059;-71
2022/05/26 10:10:59;;;;;;;12.60;6.75;;;;;;;21.95;54.71;102057.13;5105896;28;20059;-65
2022/05/26 10:13:36;;;;;;;9.77;7.15;;;;;;;22.13;53.51;102054.41;5101239;28;20100;-69
2022/05/26 10:16:05;;;;;;;14.63;7.10;;;;;;;22.03;51.64;102048.91;5109280;28;20509;-65
2022/05/26 10:19:06;;;;;;;10.48;6.88;;;;;;;22.40;52.84;102059.00;5108098;28;20046;-64
2022/05/26 10:21:53;;;;;;;9.45;6.78;;;;;;;22.32;50.30;102064.47;5072374;28;20051;-70
2022/05/26 10:24:30;;;;;;;11.35;7.07;;;;;;;22.62;50.80;102063.22;5092705;28;20050;-74
2022/05/26 10:27:32;;;;;;;12.25;7.18;;;;;;;23.30;51.38;102065.28;5096242;28;20043;-65
2022/05/26 10:30:06;;;;;;;10.80;6.40;;;;;;;23.71;47.43;102058.03;5087504;28;20027;-65
2022/05/26 10:32:53;;;;;;;8.48;6.18;;;;;;;23.95;48.89;102065.59;5096894;28;20055;-69
2022/05/26 10:35:21;;;;;;;10.27;6.78;;;;;;;24.05;47.92;102057.09;5091014;28;20027;-66
2022/05/26 10:38:18;;;;;;;10.20;6.05;;;;;;;24.00;48.36;102067.88;5097715;28;20419;-66
2022/05/26 10:40:53;;;;;;;9.45;6.85;;;;;;;23.43;47.86;102063.78;5094333;28;20640;-69
2022/05/26 10:43:29;;;;;;;12.23;7.18;;;;;;;23.11;48.50;102063.59;5092193;28;20666;-68
2022/05/26 10:45:57;;;;;;;9.07;6.38;;;;;;;23.20;46.25;102062.59;5088231;28;20036;-72
2022/05/26 10:48:35;;;;;;;9.63;5.85;;;;;;;23.39;47.62;102064.28;5096430;28;20047;-71
2022/05/26 10:51:23;;;;;;;12.88;6.70;;;;;;;23.56;48.06;102062.47;5104105;28;20042;-66
2022/05/26 10:53:57;;;;;;;10.77;6.80;;;;;;;23.62;45.68;102064.56;5111445;28;20024;-66
2022/05/26 10:56:36;;;;;;;9.90;7.35;;;;;;;23.47;45.23;102063.47;5107240;28;20049;-66
2022/05/26 10:59:08;;;;;;;10.35;8.73;;;;;;;23.13;46.20;102056.84;5107388;28;20089;-72
2022/05/26 11:01:38;;;;;;;11.32;8.45;;;;;;;23.36;46.62;102067.38;5092224;28;20088;-66
2022/05/26 11:04:25;;;;;;;10.07;7.93;;;;;;;23.80;47.53;102064.50;5110733;28;20039;-65
2022/05/26 11:06:56;;;;;;;10.98;7.55;;;;;;;24.02;45.77;102068.59;5110934;28;20027;-65
2022/05/26 11:09:34;;;;;;;9.48;7.70;;;;;;;23.87;46.24;102071.13;5112265;28;20037;-70
2022/05/26 11:12:04;;;;;;;12.57;7.80;;;;;;;23.82;46.46;102067.97;5101386;28;20089;-66
2022/05/26 11:18:14;;;;;;;9.70;7.82;;;;;;;24.01;46.09;102072.38;5101856;28;20111;-73
2022/05/26 11:20:53;;;;;;;12.55;8.02;;;;;;;23.38;46.25;102070.88;5109836;28;20039;-68
2022/05/26 11:23:20;;;;;;;9.68;7.85;;;;;;;22.96;47.57;102060.56;5102591;28;20407;-71
2022/05/26 11:25:54;;;;;;;10.38;7.45;;;;;;;22.66;48.57;102061.81;5093760;28;20066;-67
2022/05/26 11:28:44;;;;;;;11.48;7.70;;;;;;;22.69;49.34;102067.06;5099090;28;20085;-66
2022/05/26 11:37:15;;;;;;;10.95;7.78;;;;;;;23.32;46.29;102058.53;5090932;28;20457;-70
2022/05/26 11:39:42;;;;;;;12.60;7.97;;;;;;;22.91;44.44;102049.06;5094477;28;20121;-66
2022/05/26 11:42:24;;;;;;;10.07;7.50;;;;;;;22.64;46.94;102055.59;5101547;28;20353;-73
2022/05/26 11:45:09;;;;;;;14.88;8.70;;;;;;;22.36;48.55;102054.81;5098304;28;20378;-74
2022/05/26 11:47:49;;;;;;;13.32;8.27;;;;;;;22.12;48.39;102052.66;5110840;28;20066;-64
2022/05/26 11:50:44;;;;;;;12.88;8.18;;;;;;;21.86;49.08;102053.38;5108823;28;20510;-66
2022/05/26 11:53:11;;;;;;;11.70;8.30;;;;;;;21.55;48.98;102044.53;5111179;28;20043;-65
2022/05/26 11:55:47;;;;;;;9.77;7.78;;;;;;;21.73;51.84;102052.00;5108096;28;20472;-70
2022/05/26 11:58:41;;;;;;;15.98;9.10;;;;;;;22.27;53.92;102048.31;5114077;27;20042;-65
2022/05/26 12:01:22;;;;;;;12.00;8.60;;;;;;;22.73;51.44;102039.88;5105774;27;20126;-70
2022/05/26 12:03:53;;;;;;;11.88;10.27;;;;;;;23.14;52.69;102032.75;5110628;28;20035;-65
2022/05/26 12:06:40;;;;;;;14.15;9.63;;;;;;;23.42;46.83;102027.84;5109416;28;20048;-70
2022/05/26 12:09:11;;;;;;;12.80;9.77;;;;;;;23.49;46.96;102034.47;5109940;28;20039;-70
2022/05/26 12:12:00;;;;;;;11.50;10.10;;;;;;;23.56;47.45;102031.91;5107336;28;20126;-72
2022/05/26 12:14:34;;;;;;;19.88;10.32;;;;;;;23.82;48.97;102029.94;5099570;28;20043;-65
2022/05/26 12:17:33;;;;;;;10.40;7.80;;;;;;;24.15;47.36;102019.78;5102595;28;20028;-64
2022/05/26 12:20:05;;;;;;;11.65;7.68;;;;;;;24.24;44.63;102022.53;5100587;28;20035;-69